sensor_id;sensor_type;location;lat;lon;timestamp;P1;durP1;ratioP1;P2;durP2;ratioP2
27744;SDS011;61387;48.112;8.616;2023-11-22T00:01:14;11.87;;;6.20;;
27744;SDS011;61387;48.112;8.616;2023-11-22T00:03:40;11.13;;;5.67;;
27744;SDS011;61387;48.112;8.616;2023-11-22T00:06:06;12.90;;;6.17;;
27744;SDS011;61387;48.112;8.616;2023-11-22T00:08:32;11.90;;;5.57;;
27744;SDS011;61387;48.112;8.616;2023-11-22T00:10:59;9.87;;;5.37;;
27744;SDS011;61387;48.112;8.616;2023-11-22T00:13:25;9.83;;;5.17;;
27744;SDS011;61387;48.112;8.616;2023-11-22T00:15:51;11.87;;;5.87;;
27744;SDS011;61387;48.112;8.616;2023-11-22T00:18:17;10.77;;;5.50;;
27744;SDS011;61387;48.112;8.616;2023-11-22T00:20:43;11.43;;;5.47;;
27744;SDS011;61387;48.112;8.616;2023-11-22T00:23:09;10.87;;;5.23;;
27744;SDS011;61387;48.112;8.616;2023-11-22T00:25:35;12.37;;;5.77;;
27744;SDS011;61387;48.112;8.616;2023-11-22T00:28:00;11.83;;;5.50;;
27744;SDS011;61387;48.112;8.616;2023-11-22T00:30:27;12.23;;;5.33;;
27744;SDS011;61387;48.112;8.616;2023-11-22T00:32:53;8.10;;;5.10;;
27744;SDS011;61387;48.112;8.616;2023-11-22T00:35:19;15.03;;;6.10;;
27744;SDS011;61387;48.112;8.616;2023-11-22T00:37:45;12.40;;;5.67;;
27744;SDS011;61387;48.112;8.616;2023-11-22T00:40:11;9.87;;;5.37;;
27744;SDS011;61387;48.112;8.616;2023-11-22T00:42:38;9.10;;;5.03;;
27744;SDS011;61387;48.112;8.616;2023-11-22T00:45:05;11.47;;;5.23;;
27744;SDS011;61387;48.112;8.616;2023-11-22T00:47:32;11.57;;;5.33;;
27744;SDS011;61387;48.112;8.616;2023-11-22T00:49:58;10.03;;;5.83;;
27744;SDS011;61387;48.112;8.616;2023-11-22T00:52:24;11.20;;;5.60;;
27744;SDS011;61387;48.112;8.616;2023-11-22T00:54:50;8.70;;;5.53;;
27744;SDS011;61387;48.112;8.616;2023-11-22T00:57:16;12.87;;;5.10;;
27744;SDS011;61387;48.112;8.616;2023-11-22T00:59:42;10.90;;;5.30;;
27744;SDS011;61387;48.112;8.616;2023-11-22T01:02:08;13.13;;;5.07;;
27744;SDS011;61387;48.112;8.616;2023-11-22T01:04:34;15.80;;;5.87;;
27744;SDS011;61387;48.112;8.616;2023-11-22T01:07:02;17.63;;;5.33;;
27744;SDS011;61387;48.112;8.616;2023-11-22T01:09:29;11.13;;;5.43;;
27744;SDS011;61387;48.112;8.616;2023-11-22T01:11:57;9.83;;;5.40;;
27744;SDS011;61387;48.112;8.616;2023-11-22T01:14:23;13.13;;;5.63;;
27744;SDS011;61387;48.112;8.616;2023-11-22T01:16:49;12.47;;;4.77;;
27744;SDS011;61387;48.112;8.616;2023-11-22T01:19:15;10.60;;;5.93;;
27744;SDS011;61387;48.112;8.616;2023-11-22T01:21:41;10.93;;;5.70;;
27744;SDS011;61387;48.112;8.616;2023-11-22T01:24:07;9.37;;;5.63;;
27744;SDS011;61387;48.112;8.616;2023-11-22T01:26:33;10.20;;;5.60;;
27744;SDS011;61387;48.112;8.616;2023-11-22T01:28:59;13.40;;;6.60;;
27744;SDS011;61387;48.112;8.616;2023-11-22T01:31:27;10.03;;;5.47;;
27744;SDS011;61387;48.112;8.616;2023-11-22T01:33:53;13.60;;;6.30;;
27744;SDS011;61387;48.112;8.616;2023-11-22T01:36:19;10.93;;;6.13;;
27744;SDS011;61387;48.112;8.616;2023-11-22T01:38:45;15.87;;;6.47;;
27744;SDS011;61387;48.112;8.616;2023-11-22T01:41:12;11.00;;;5.73;;
27744;SDS011;61387;48.112;8.616;2023-11-22T01:43:38;11.93;;;6.37;;
27744;SDS011;61387;48.112;8.616;2023-11-22T01:46:08;10.40;;;6.37;;
27744;SDS011;61387;48.112;8.616;2023-11-22T01:48:35;10.57;;;6.17;;
27744;SDS011;61387;48.112;8.616;2023-11-22T01:51:02;11.27;;;6.00;;
27744;SDS011;61387;48.112;8.616;2023-11-22T01:53:28;12.23;;;6.23;;
27744;SDS011;61387;48.112;8.616;2023-11-22T01:55:54;13.50;;;6.47;;
27744;SDS011;61387;48.112;8.616;2023-11-22T01:58:21;14.07;;;5.87;;
27744;SDS011;61387;48.112;8.616;2023-11-22T02:00:51;14.93;;;6.87;;
27744;SDS011;61387;48.112;8.616;2023-11-22T02:03:17;13.90;;;6.60;;
27744;SDS011;61387;48.112;8.616;2023-11-22T02:05:44;13.83;;;6.57;;
27744;SDS011;61387;48.112;8.616;2023-11-22T02:08:10;14.63;;;6.77;;
27744;SDS011;61387;48.112;8.616;2023-11-22T02:10:36;16.60;;;7.17;;
27744;SDS011;61387;48.112;8.616;2023-11-22T02:13:03;12.43;;;6.53;;
27744;SDS011;61387;48.112;8.616;2023-11-22T02:15:35;13.53;;;7.30;;
27744;SDS011;61387;48.112;8.616;2023-11-22T02:18:01;15.93;;;7.17;;
27744;SDS011;61387;48.112;8.616;2023-11-22T02:20:28;13.63;;;7.10;;
27744;SDS011;61387;48.112;8.616;2023-11-22T02:22:53;16.97;;;7.40;;
27744;SDS011;61387;48.112;8.616;2023-11-22T02:25:19;13.93;;;6.93;;
27744;SDS011;61387;48.112;8.616;2023-11-22T02:27:45;14.23;;;6.77;;
27744;SDS011;61387;48.112;8.616;2023-11-22T02:30:12;13.03;;;7.17;;
27744;SDS011;61387;48.112;8.616;2023-11-22T02:32:38;13.90;;;7.17;;
27744;SDS011;61387;48.112;8.616;2023-11-22T02:35:05;11.50;;;6.40;;
27744;SDS011;61387;48.112;8.616;2023-11-22T02:37:34;12.93;;;6.83;;
27744;SDS011;61387;48.112;8.616;2023-11-22T02:40:11;10.73;;;5.73;;
27744;SDS011;61387;48.112;8.616;2023-11-22T02:42:45;9.93;;;5.87;;
27744;SDS011;61387;48.112;8.616;2023-11-22T02:45:15;11.07;;;6.23;;
27744;SDS011;61387;48.112;8.616;2023-11-22T02:47:42;11.00;;;6.20;;
27744;SDS011;61387;48.112;8.616;2023-11-22T02:50:09;10.87;;;5.93;;
27744;SDS011;61387;48.112;8.616;2023-11-22T02:52:36;11.07;;;6.50;;
27744;SDS011;61387;48.112;8.616;2023-11-22T02:55:02;11.17;;;5.70;;
27744;SDS011;61387;48.112;8.616;2023-11-22T02:57:29;9.23;;;5.17;;
27744;SDS011;61387;48.112;8.616;2023-11-22T02:59:56;7.97;;;4.10;;
27744;SDS011;61387;48.112;8.616;2023-11-22T03:02:22;6.83;;;3.70;;
27744;SDS011;61387;48.112;8.616;2023-11-22T03:04:49;4.13;;;2.60;;
27744;SDS011;61387;48.112;8.616;2023-11-22T03:07:15;4.60;;;2.60;;
27744;SDS011;61387;48.112;8.616;2023-11-22T03:09:41;3.27;;;2.20;;
27744;SDS011;61387;48.112;8.616;2023-11-22T03:12:08;4.00;;;2.57;;
27744;SDS011;61387;48.112;8.616;2023-11-22T03:14:35;2.50;;;1.73;;
27744;SDS011;61387;48.112;8.616;2023-11-22T03:17:01;3.67;;;1.97;;
27744;SDS011;61387;48.112;8.616;2023-11-22T03:19:28;3.43;;;2.17;;
27744;SDS011;61387;48.112;8.616;2023-11-22T03:21:54;4.70;;;2.53;;
27744;SDS011;61387;48.112;8.616;2023-11-22T03:24:21;4.27;;;2.23;;
27744;SDS011;61387;48.112;8.616;2023-11-22T03:26:47;4.77;;;2.20;;
27744;SDS011;61387;48.112;8.616;2023-11-22T03:29:16;4.37;;;2.73;;
27744;SDS011;61387;48.112;8.616;2023-11-22T03:31:43;3.67;;;2.40;;
27744;SDS011;61387;48.112;8.616;2023-11-22T03:34:09;5.07;;;2.87;;
27744;SDS011;61387;48.112;8.616;2023-11-22T03:36:35;4.80;;;2.73;;
27744;SDS011;61387;48.112;8.616;2023-11-22T03:39:01;5.97;;;3.17;;
27744;SDS011;61387;48.112;8.616;2023-11-22T03:41:27;5.07;;;3.10;;
27744;SDS011;61387;48.112;8.616;2023-11-22T03:43:53;4.63;;;3.03;;
27744;SDS011;61387;48.112;8.616;2023-11-22T03:46:19;9.03;;;4.90;;
27744;SDS011;61387;48.112;8.616;2023-11-22T03:48:45;9.23;;;5.50;;
27744;SDS011;61387;48.112;8.616;2023-11-22T03:51:12;11.03;;;6.27;;
27744;SDS011;61387;48.112;8.616;2023-11-22T03:53:38;9.97;;;6.40;;
27744;SDS011;61387;48.112;8.616;2023-11-22T03:56:04;9.33;;;5.87;;
27744;SDS011;61387;48.112;8.616;2023-11-22T03:58:30;10.10;;;6.23;;
27744;SDS011;61387;48.112;8.616;2023-11-22T04:00:56;10.00;;;6.07;;
27744;SDS011;61387;48.112;8.616;2023-11-22T04:03:23;10.80;;;6.67;;
27744;SDS011;61387;48.112;8.616;2023-11-22T04:05:49;9.80;;;6.33;;
27744;SDS011;61387;48.112;8.616;2023-11-22T04:08:16;11.77;;;6.37;;
27744;SDS011;61387;48.112;8.616;2023-11-22T04:10:42;10.80;;;6.63;;
27744;SDS011;61387;48.112;8.616;2023-11-22T04:13:08;11.53;;;7.47;;
27744;SDS011;61387;48.112;8.616;2023-11-22T04:15:34;12.13;;;7.53;;
27744;SDS011;61387;48.112;8.616;2023-11-22T04:18:00;11.93;;;6.97;;
27744;SDS011;61387;48.112;8.616;2023-11-22T04:20:25;12.53;;;7.70;;
27744;SDS011;61387;48.112;8.616;2023-11-22T04:22:51;12.90;;;7.07;;
27744;SDS011;61387;48.112;8.616;2023-11-22T04:25:17;12.00;;;7.20;;
27744;SDS011;61387;48.112;8.616;2023-11-22T04:27:43;11.53;;;6.80;;
27744;SDS011;61387;48.112;8.616;2023-11-22T04:30:10;14.70;;;7.77;;
27744;SDS011;61387;48.112;8.616;2023-11-22T04:32:39;11.80;;;7.37;;
27744;SDS011;61387;48.112;8.616;2023-11-22T04:35:05;11.37;;;6.93;;
27744;SDS011;61387;48.112;8.616;2023-11-22T04:37:31;13.33;;;7.70;;
27744;SDS011;61387;48.112;8.616;2023-11-22T04:40:00;12.87;;;8.07;;
27744;SDS011;61387;48.112;8.616;2023-11-22T04:42:26;12.97;;;7.07;;
27744;SDS011;61387;48.112;8.616;2023-11-22T04:44:53;10.83;;;6.80;;
27744;SDS011;61387;48.112;8.616;2023-11-22T04:47:19;10.97;;;6.30;;
27744;SDS011;61387;48.112;8.616;2023-11-22T04:49:46;11.03;;;5.67;;
27744;SDS011;61387;48.112;8.616;2023-11-22T04:52:12;9.43;;;5.43;;
27744;SDS011;61387;48.112;8.616;2023-11-22T04:54:38;8.73;;;5.27;;
27744;SDS011;61387;48.112;8.616;2023-11-22T04:57:04;6.67;;;3.90;;
27744;SDS011;61387;48.112;8.616;2023-11-22T04:59:31;7.27;;;4.00;;
27744;SDS011;61387;48.112;8.616;2023-11-22T05:01:57;5.57;;;3.43;;
27744;SDS011;61387;48.112;8.616;2023-11-22T05:04:23;6.03;;;3.40;;
27744;SDS011;61387;48.112;8.616;2023-11-22T05:06:49;5.43;;;3.27;;
27744;SDS011;61387;48.112;8.616;2023-11-22T05:09:15;7.17;;;3.77;;
27744;SDS011;61387;48.112;8.616;2023-11-22T05:11:42;6.57;;;3.77;;
27744;SDS011;61387;48.112;8.616;2023-11-22T05:14:09;7.03;;;4.00;;
27744;SDS011;61387;48.112;8.616;2023-11-22T05:16:35;7.17;;;4.33;;
27744;SDS011;61387;48.112;8.616;2023-11-22T05:19:01;7.67;;;4.13;;
27744;SDS011;61387;48.112;8.616;2023-11-22T05:21:27;8.00;;;4.37;;
27744;SDS011;61387;48.112;8.616;2023-11-22T05:23:53;7.10;;;4.13;;
27744;SDS011;61387;48.112;8.616;2023-11-22T05:26:20;7.23;;;4.10;;
27744;SDS011;61387;48.112;8.616;2023-11-22T05:28:47;9.17;;;4.30;;
27744;SDS011;61387;48.112;8.616;2023-11-22T05:31:13;9.67;;;5.03;;
27744;SDS011;61387;48.112;8.616;2023-11-22T05:33:39;6.40;;;3.90;;
27744;SDS011;61387;48.112;8.616;2023-11-22T05:36:05;8.27;;;4.10;;
27744;SDS011;61387;48.112;8.616;2023-11-22T05:38:31;7.17;;;4.17;;
27744;SDS011;61387;48.112;8.616;2023-11-22T05:41:00;7.80;;;4.40;;
27744;SDS011;61387;48.112;8.616;2023-11-22T05:43:26;7.63;;;4.43;;
27744;SDS011;61387;48.112;8.616;2023-11-22T05:45:55;6.83;;;4.10;;
27744;SDS011;61387;48.112;8.616;2023-11-22T05:48:21;6.97;;;4.00;;
27744;SDS011;61387;48.112;8.616;2023-11-22T05:50:47;6.93;;;3.90;;
27744;SDS011;61387;48.112;8.616;2023-11-22T05:53:13;6.90;;;3.90;;
27744;SDS011;61387;48.112;8.616;2023-11-22T05:55:45;6.13;;;3.80;;
27744;SDS011;61387;48.112;8.616;2023-11-22T05:58:12;7.40;;;3.93;;
27744;SDS011;61387;48.112;8.616;2023-11-22T06:00:41;7.27;;;4.23;;
27744;SDS011;61387;48.112;8.616;2023-11-22T06:03:07;7.63;;;4.40;;
27744;SDS011;61387;48.112;8.616;2023-11-22T06:05:33;7.80;;;4.27;;
27744;SDS011;61387;48.112;8.616;2023-11-22T06:07:59;7.93;;;4.83;;
27744;SDS011;61387;48.112;8.616;2023-11-22T06:10:25;8.70;;;5.53;;
27744;SDS011;61387;48.112;8.616;2023-11-22T06:12:51;8.90;;;5.70;;
27744;SDS011;61387;48.112;8.616;2023-11-22T06:15:17;9.80;;;5.63;;
27744;SDS011;61387;48.112;8.616;2023-11-22T06:17:46;10.83;;;6.20;;
27744;SDS011;61387;48.112;8.616;2023-11-22T06:20:12;12.27;;;6.60;;
27744;SDS011;61387;48.112;8.616;2023-11-22T06:22:38;8.90;;;5.53;;
27744;SDS011;61387;48.112;8.616;2023-11-22T06:25:07;10.10;;;6.13;;
27744;SDS011;61387;48.112;8.616;2023-11-22T06:27:39;11.33;;;5.70;;
27744;SDS011;61387;48.112;8.616;2023-11-22T06:30:07;10.77;;;6.23;;
27744;SDS011;61387;48.112;8.616;2023-11-22T06:32:36;10.57;;;5.80;;
27744;SDS011;61387;48.112;8.616;2023-11-22T06:35:02;10.33;;;6.30;;
27744;SDS011;61387;48.112;8.616;2023-11-22T06:37:28;12.27;;;7.10;;
27744;SDS011;61387;48.112;8.616;2023-11-22T06:39:54;13.70;;;7.00;;
27744;SDS011;61387;48.112;8.616;2023-11-22T06:42:22;13.03;;;7.30;;
27744;SDS011;61387;48.112;8.616;2023-11-22T06:44:48;11.93;;;6.80;;
27744;SDS011;61387;48.112;8.616;2023-11-22T06:47:14;13.33;;;7.40;;
27744;SDS011;61387;48.112;8.616;2023-11-22T06:49:40;12.33;;;7.10;;
27744;SDS011;61387;48.112;8.616;2023-11-22T06:52:06;12.97;;;7.57;;
27744;SDS011;61387;48.112;8.616;2023-11-22T06:54:33;12.20;;;6.67;;
27744;SDS011;61387;48.112;8.616;2023-11-22T06:57:01;13.50;;;7.13;;
27744;SDS011;61387;48.112;8.616;2023-11-22T06:59:27;12.50;;;7.43;;
27744;SDS011;61387;48.112;8.616;2023-11-22T07:01:53;12.23;;;7.13;;
27744;SDS011;61387;48.112;8.616;2023-11-22T07:04:20;12.83;;;7.23;;
27744;SDS011;61387;48.112;8.616;2023-11-22T07:06:47;13.77;;;7.60;;
27744;SDS011;61387;48.112;8.616;2023-11-22T07:09:14;14.10;;;7.80;;
27744;SDS011;61387;48.112;8.616;2023-11-22T07:11:40;12.33;;;7.20;;
27744;SDS011;61387;48.112;8.616;2023-11-22T07:14:06;12.63;;;7.23;;
27744;SDS011;61387;48.112;8.616;2023-11-22T07:16:32;14.37;;;8.30;;
27744;SDS011;61387;48.112;8.616;2023-11-22T07:18:58;14.40;;;7.20;;
27744;SDS011;61387;48.112;8.616;2023-11-22T07:21:27;15.57;;;9.43;;
27744;SDS011;61387;48.112;8.616;2023-11-22T07:23:54;13.40;;;7.80;;
27744;SDS011;61387;48.112;8.616;2023-11-22T07:26:20;11.97;;;7.00;;
27744;SDS011;61387;48.112;8.616;2023-11-22T07:28:46;15.13;;;7.63;;
27744;SDS011;61387;48.112;8.616;2023-11-22T07:31:12;10.53;;;6.40;;
27744;SDS011;61387;48.112;8.616;2023-11-22T07:33:39;10.23;;;6.57;;
27744;SDS011;61387;48.112;8.616;2023-11-22T07:36:05;12.83;;;6.27;;
27744;SDS011;61387;48.112;8.616;2023-11-22T07:38:32;11.73;;;6.20;;
27744;SDS011;61387;48.112;8.616;2023-11-22T07:40:59;11.00;;;5.97;;
27744;SDS011;61387;48.112;8.616;2023-11-22T07:43:25;11.70;;;6.53;;
27744;SDS011;61387;48.112;8.616;2023-11-22T07:45:51;9.10;;;5.60;;
27744;SDS011;61387;48.112;8.616;2023-11-22T07:48:17;10.10;;;5.70;;
27744;SDS011;61387;48.112;8.616;2023-11-22T07:50:43;10.77;;;5.60;;
27744;SDS011;61387;48.112;8.616;2023-11-22T07:53:10;9.53;;;5.43;;
27744;SDS011;61387;48.112;8.616;2023-11-22T07:55:37;9.17;;;5.37;;
27744;SDS011;61387;48.112;8.616;2023-11-22T07:58:03;8.03;;;4.87;;
27744;SDS011;61387;48.112;8.616;2023-11-22T08:00:31;8.20;;;5.10;;
27744;SDS011;61387;48.112;8.616;2023-11-22T08:02:58;10.70;;;5.47;;
27744;SDS011;61387;48.112;8.616;2023-11-22T08:05:26;9.70;;;5.40;;
27744;SDS011;61387;48.112;8.616;2023-11-22T08:07:53;11.30;;;6.17;;
27744;SDS011;61387;48.112;8.616;2023-11-22T08:10:18;9.73;;;5.10;;
27744;SDS011;61387;48.112;8.616;2023-11-22T08:12:45;9.83;;;5.30;;
27744;SDS011;61387;48.112;8.616;2023-11-22T08:15:13;9.60;;;5.23;;
27744;SDS011;61387;48.112;8.616;2023-11-22T08:17:40;11.17;;;6.23;;
27744;SDS011;61387;48.112;8.616;2023-11-22T08:20:06;11.57;;;6.53;;
27744;SDS011;61387;48.112;8.616;2023-11-22T08:22:38;11.57;;;6.30;;
27744;SDS011;61387;48.112;8.616;2023-11-22T08:25:05;13.67;;;7.40;;
27744;SDS011;61387;48.112;8.616;2023-11-22T08:27:33;12.93;;;6.43;;
27744;SDS011;61387;48.112;8.616;2023-11-22T08:29:59;11.13;;;6.17;;
27744;SDS011;61387;48.112;8.616;2023-11-22T08:32:30;11.27;;;7.03;;
27744;SDS011;61387;48.112;8.616;2023-11-22T08:34:56;10.13;;;6.23;;
27744;SDS011;61387;48.112;8.616;2023-11-22T08:37:23;12.60;;;6.23;;
27744;SDS011;61387;48.112;8.616;2023-11-22T08:39:49;10.93;;;6.67;;
27744;SDS011;61387;48.112;8.616;2023-11-22T08:42:17;10.30;;;6.00;;
27744;SDS011;61387;48.112;8.616;2023-11-22T08:44:43;12.00;;;6.73;;
27744;SDS011;61387;48.112;8.616;2023-11-22T08:47:09;11.70;;;6.20;;
27744;SDS011;61387;48.112;8.616;2023-11-22T08:49:35;11.10;;;6.53;;
27744;SDS011;61387;48.112;8.616;2023-11-22T08:52:01;12.23;;;6.80;;
27744;SDS011;61387;48.112;8.616;2023-11-22T08:54:28;8.67;;;5.27;;
27744;SDS011;61387;48.112;8.616;2023-11-22T08:56:54;10.80;;;5.70;;
27744;SDS011;61387;48.112;8.616;2023-11-22T08:59:25;9.50;;;5.80;;
27744;SDS011;61387;48.112;8.616;2023-11-22T09:01:51;11.50;;;6.47;;
27744;SDS011;61387;48.112;8.616;2023-11-22T09:04:17;9.97;;;6.10;;
27744;SDS011;61387;48.112;8.616;2023-11-22T09:06:43;11.77;;;6.13;;
27744;SDS011;61387;48.112;8.616;2023-11-22T09:09:12;15.30;;;5.63;;
27744;SDS011;61387;48.112;8.616;2023-11-22T09:11:40;9.07;;;5.73;;
27744;SDS011;61387;48.112;8.616;2023-11-22T09:14:07;11.70;;;6.10;;
27744;SDS011;61387;48.112;8.616;2023-11-22T09:16:38;10.77;;;6.53;;
27744;SDS011;61387;48.112;8.616;2023-11-22T09:19:04;10.97;;;5.87;;
27744;SDS011;61387;48.112;8.616;2023-11-22T09:21:31;11.17;;;5.63;;
27744;SDS011;61387;48.112;8.616;2023-11-22T09:23:57;9.60;;;6.13;;
27744;SDS011;61387;48.112;8.616;2023-11-22T09:26:24;11.20;;;6.10;;
27744;SDS011;61387;48.112;8.616;2023-11-22T09:28:50;10.63;;;6.50;;
27744;SDS011;61387;48.112;8.616;2023-11-22T09:31:16;9.40;;;6.03;;
27744;SDS011;61387;48.112;8.616;2023-11-22T09:33:45;9.80;;;5.87;;
27744;SDS011;61387;48.112;8.616;2023-11-22T09:36:11;8.13;;;5.57;;
27744;SDS011;61387;48.112;8.616;2023-11-22T09:38:38;8.37;;;5.47;;
27744;SDS011;61387;48.112;8.616;2023-11-22T09:41:03;10.87;;;5.87;;
27744;SDS011;61387;48.112;8.616;2023-11-22T09:43:30;9.70;;;5.33;;
27744;SDS011;61387;48.112;8.616;2023-11-22T09:45:56;9.00;;;5.37;;
27744;SDS011;61387;48.112;8.616;2023-11-22T09:48:22;8.77;;;4.93;;
27744;SDS011;61387;48.112;8.616;2023-11-22T09:50:57;8.20;;;5.07;;
27744;SDS011;61387;48.112;8.616;2023-11-22T09:53:40;8.40;;;4.83;;
27744;SDS011;61387;48.112;8.616;2023-11-22T09:56:19;7.60;;;4.67;;
27744;SDS011;61387;48.112;8.616;2023-11-22T09:58:45;7.70;;;4.57;;
27744;SDS011;61387;48.112;8.616;2023-11-22T10:01:14;7.20;;;4.50;;
27744;SDS011;61387;48.112;8.616;2023-11-22T10:03:40;6.90;;;4.43;;
27744;SDS011;61387;48.112;8.616;2023-11-22T10:06:06;8.07;;;4.10;;
27744;SDS011;61387;48.112;8.616;2023-11-22T10:08:33;6.90;;;4.23;;
27744;SDS011;61387;48.112;8.616;2023-11-22T10:11:00;7.10;;;4.63;;
27744;SDS011;61387;48.112;8.616;2023-11-22T10:13:26;7.10;;;4.07;;
27744;SDS011;61387;48.112;8.616;2023-11-22T10:15:53;8.20;;;4.33;;
27744;SDS011;61387;48.112;8.616;2023-11-22T10:18:19;7.40;;;3.73;;
27744;SDS011;61387;48.112;8.616;2023-11-22T10:20:47;7.47;;;4.10;;
27744;SDS011;61387;48.112;8.616;2023-11-22T10:23:15;6.77;;;4.20;;
27744;SDS011;61387;48.112;8.616;2023-11-22T10:25:46;6.83;;;3.57;;
27744;SDS011;61387;48.112;8.616;2023-11-22T10:28:14;8.37;;;4.10;;
27744;SDS011;61387;48.112;8.616;2023-11-22T10:30:42;6.80;;;4.13;;
27744;SDS011;61387;48.112;8.616;2023-11-22T10:33:09;6.30;;;3.87;;
27744;SDS011;61387;48.112;8.616;2023-11-22T10:35:39;6.73;;;3.83;;
27744;SDS011;61387;48.112;8.616;2023-11-22T10:38:08;5.73;;;3.50;;
27744;SDS011;61387;48.112;8.616;2023-11-22T10:40:35;6.20;;;3.63;;
27744;SDS011;61387;48.112;8.616;2023-11-22T10:43:02;7.57;;;4.13;;
27744;SDS011;61387;48.112;8.616;2023-11-22T10:45:29;6.43;;;3.40;;
27744;SDS011;61387;48.112;8.616;2023-11-22T10:47:56;7.33;;;4.30;;
27744;SDS011;61387;48.112;8.616;2023-11-22T10:50:22;6.97;;;4.13;;
27744;SDS011;61387;48.112;8.616;2023-11-22T10:52:48;5.97;;;3.73;;
27744;SDS011;61387;48.112;8.616;2023-11-22T10:55:20;8.40;;;4.60;;
27744;SDS011;61387;48.112;8.616;2023-11-22T10:57:47;9.73;;;6.50;;
27744;SDS011;61387;48.112;8.616;2023-11-22T11:00:18;9.50;;;5.37;;
27744;SDS011;61387;48.112;8.616;2023-11-22T11:02:47;10.97;;;5.73;;
27744;SDS011;61387;48.112;8.616;2023-11-22T11:05:20;9.33;;;5.87;;
27744;SDS011;61387;48.112;8.616;2023-11-22T11:08:14;10.23;;;6.10;;
27744;SDS011;61387;48.112;8.616;2023-11-22T11:10:41;8.90;;;6.10;;
27744;SDS011;61387;48.112;8.616;2023-11-22T11:13:08;10.07;;;6.30;;
27744;SDS011;61387;48.112;8.616;2023-11-22T11:15:35;12.60;;;7.20;;
27744;SDS011;61387;48.112;8.616;2023-11-22T11:18:01;12.47;;;7.70;;
27744;SDS011;61387;48.112;8.616;2023-11-22T11:23:37;11.87;;;7.00;;
27744;SDS011;61387;48.112;8.616;2023-11-22T11:26:09;13.30;;;8.07;;
27744;SDS011;61387;48.112;8.616;2023-11-22T11:28:44;13.37;;;7.03;;
27744;SDS011;61387;48.112;8.616;2023-11-22T11:31:15;11.90;;;6.87;;
27744;SDS011;61387;48.112;8.616;2023-11-22T11:38:59;13.00;;;7.50;;
27744;SDS011;61387;48.112;8.616;2023-11-22T11:41:31;12.40;;;7.20;;
27744;SDS011;61387;48.112;8.616;2023-11-22T11:43:57;12.83;;;7.47;;
27744;SDS011;61387;48.112;8.616;2023-11-22T11:46:24;11.43;;;7.20;;
27744;SDS011;61387;48.112;8.616;2023-11-22T11:48:52;14.17;;;7.93;;
27744;SDS011;61387;48.112;8.616;2023-11-22T11:51:19;10.43;;;6.50;;
27744;SDS011;61387;48.112;8.616;2023-11-22T11:53:47;9.17;;;5.77;;
27744;SDS011;61387;48.112;8.616;2023-11-22T11:56:14;9.63;;;6.20;;
27744;SDS011;61387;48.112;8.616;2023-11-22T11:58:50;9.77;;;5.80;;
27744;SDS011;61387;48.112;8.616;2023-11-22T12:01:16;13.27;;;7.53;;
27744;SDS011;61387;48.112;8.616;2023-11-22T12:03:45;14.53;;;7.67;;
27744;SDS011;61387;48.112;8.616;2023-11-22T12:06:14;15.00;;;8.57;;
27744;SDS011;61387;48.112;8.616;2023-11-22T12:08:40;13.30;;;8.50;;
27744;SDS011;61387;48.112;8.616;2023-11-22T12:11:06;12.60;;;8.00;;
27744;SDS011;61387;48.112;8.616;2023-11-22T12:13:33;13.33;;;8.30;;
27744;SDS011;61387;48.112;8.616;2023-11-22T12:16:03;15.40;;;8.40;;
27744;SDS011;61387;48.112;8.616;2023-11-22T12:18:38;12.70;;;8.10;;
27744;SDS011;61387;48.112;8.616;2023-11-22T12:21:05;14.93;;;8.20;;
27744;SDS011;61387;48.112;8.616;2023-11-22T12:26:22;13.07;;;8.37;;
27744;SDS011;61387;48.112;8.616;2023-11-22T12:28:49;15.57;;;9.30;;
27744;SDS011;61387;48.112;8.616;2023-11-22T12:31:15;14.40;;;8.60;;
27744;SDS011;61387;48.112;8.616;2023-11-22T12:33:42;13.27;;;8.93;;
27744;SDS011;61387;48.112;8.616;2023-11-22T12:36:10;14.63;;;9.13;;
27744;SDS011;61387;48.112;8.616;2023-11-22T12:38:38;13.50;;;8.67;;
27744;SDS011;61387;48.112;8.616;2023-11-22T12:41:05;13.83;;;8.37;;
27744;SDS011;61387;48.112;8.616;2023-11-22T12:43:32;12.70;;;8.00;;
27744;SDS011;61387;48.112;8.616;2023-11-22T12:46:04;11.47;;;7.73;;
27744;SDS011;61387;48.112;8.616;2023-11-22T12:48:41;13.83;;;8.60;;
27744;SDS011;61387;48.112;8.616;2023-11-22T12:51:16;13.07;;;8.17;;
27744;SDS011;61387;48.112;8.616;2023-11-22T12:53:47;12.10;;;6.87;;
27744;SDS011;61387;48.112;8.616;2023-11-22T12:56:14;10.43;;;6.97;;
27744;SDS011;61387;48.112;8.616;2023-11-22T12:58:40;13.33;;;7.53;;
27744;SDS011;61387;48.112;8.616;2023-11-22T13:01:06;11.70;;;7.90;;
27744;SDS011;61387;48.112;8.616;2023-11-22T13:03:32;12.00;;;7.47;;
27744;SDS011;61387;48.112;8.616;2023-11-22T13:05:58;12.17;;;7.10;;
27744;SDS011;61387;48.112;8.616;2023-11-22T13:08:24;10.87;;;6.40;;
27744;SDS011;61387;48.112;8.616;2023-11-22T13:10:54;12.50;;;7.33;;
27744;SDS011;61387;48.112;8.616;2023-11-22T13:13:20;10.70;;;6.63;;
27744;SDS011;61387;48.112;8.616;2023-11-22T13:15:46;12.67;;;6.80;;
27744;SDS011;61387;48.112;8.616;2023-11-22T13:18:13;12.87;;;7.73;;
27744;SDS011;61387;48.112;8.616;2023-11-22T13:20:38;11.67;;;7.60;;
27744;SDS011;61387;48.112;8.616;2023-11-22T13:23:05;12.33;;;7.57;;
27744;SDS011;61387;48.112;8.616;2023-11-22T13:25:32;12.10;;;8.10;;
27744;SDS011;61387;48.112;8.616;2023-11-22T13:27:58;10.33;;;6.90;;
27744;SDS011;61387;48.112;8.616;2023-11-22T13:30:24;12.00;;;7.60;;
27744;SDS011;61387;48.112;8.616;2023-11-22T13:32:54;13.90;;;8.63;;
27744;SDS011;61387;48.112;8.616;2023-11-22T13:35:23;13.13;;;7.77;;
27744;SDS011;61387;48.112;8.616;2023-11-22T13:37:51;14.93;;;8.77;;
27744;SDS011;61387;48.112;8.616;2023-11-22T13:40:17;12.13;;;7.60;;
27744;SDS011;61387;48.112;8.616;2023-11-22T13:42:47;11.73;;;7.53;;
27744;SDS011;61387;48.112;8.616;2023-11-22T13:45:15;13.30;;;8.53;;
27744;SDS011;61387;48.112;8.616;2023-11-22T13:47:48;13.83;;;8.77;;
27744;SDS011;61387;48.112;8.616;2023-11-22T13:50:15;14.83;;;9.43;;
27744;SDS011;61387;48.112;8.616;2023-11-22T13:52:44;16.60;;;8.57;;
27744;SDS011;61387;48.112;8.616;2023-11-22T13:55:10;14.77;;;9.07;;
27744;SDS011;61387;48.112;8.616;2023-11-22T13:57:37;13.50;;;8.43;;
27744;SDS011;61387;48.112;8.616;2023-11-22T14:00:07;15.20;;;8.90;;
27744;SDS011;61387;48.112;8.616;2023-11-22T14:02:47;15.53;;;8.80;;
27744;SDS011;61387;48.112;8.616;2023-11-22T14:05:13;12.63;;;8.80;;
27744;SDS011;61387;48.112;8.616;2023-11-22T14:07:40;13.77;;;8.77;;
27744;SDS011;61387;48.112;8.616;2023-11-22T14:10:08;13.53;;;8.50;;
27744;SDS011;61387;48.112;8.616;2023-11-22T14:12:35;12.60;;;8.27;;
27744;SDS011;61387;48.112;8.616;2023-11-22T14:15:01;12.33;;;8.23;;
27744;SDS011;61387;48.112;8.616;2023-11-22T14:17:29;13.17;;;8.83;;
27744;SDS011;61387;48.112;8.616;2023-11-22T14:19:55;15.27;;;7.77;;
27744;SDS011;61387;48.112;8.616;2023-11-22T14:22:22;13.97;;;7.73;;
27744;SDS011;61387;48.112;8.616;2023-11-22T14:24:48;12.17;;;7.87;;
27744;SDS011;61387;48.112;8.616;2023-11-22T14:27:18;15.00;;;9.80;;
27744;SDS011;61387;48.112;8.616;2023-11-22T14:29:44;14.27;;;8.87;;
27744;SDS011;61387;48.112;8.616;2023-11-22T14:32:13;14.13;;;8.33;;
27744;SDS011;61387;48.112;8.616;2023-11-22T14:34:39;16.17;;;8.23;;
27744;SDS011;61387;48.112;8.616;2023-11-22T14:37:05;12.90;;;8.47;;
27744;SDS011;61387;48.112;8.616;2023-11-22T14:39:31;13.73;;;8.10;;
27744;SDS011;61387;48.112;8.616;2023-11-22T14:41:58;13.63;;;8.83;;
27744;SDS011;61387;48.112;8.616;2023-11-22T14:44:24;12.97;;;8.20;;
27744;SDS011;61387;48.112;8.616;2023-11-22T14:46:58;12.17;;;8.20;;
27744;SDS011;61387;48.112;8.616;2023-11-22T14:49:24;13.77;;;8.37;;